Terminal Aerodrome Forecast
Issued by NWS Omaha/Valley, NE

Home | Current Version | Previous Version | Graphics & Text | Print | Product List | Glossary On
Versions: 1 2 3 4 5 6 7 8 9 10 11 12 13 14 15 16 17 18 19 20 21 22
000
FTUS43 KOAX 240520
TAFOFK
TAF
KOFK 240520Z 2406/2506 17008KT P6SM SCT250 WS015/25040KT
     FM241000 21007KT 5SM BR SCT007 SCT250
      TEMPO 2411/2414 3SM BR OVC007
     FM241500 26008KT P6SM SCT250
     FM242000 32010KT P6SM SKC=

USA.gov is the U.S. government's official web portal to all federal, state and local government web resources and services.